Dalhousie, Canada
Current Conditions -  °F | °C
As of 12:00 AM on Wednesday 28 Jan 2015 (Local Time) from CZBF Reporting Station
Light Snow Light Snow  
Wind Chill: -3°   Ceiling: 1000
Heat Index:   Visibility: 3mi
Dew Point:   Wind: 7mph
Humidity: 79%   Direction: 350°N
Pressure: 29.85"   Gusts: NA
Location:  48.06°N, 66.37°W
Report Text: CZBF 280400Z 35006KT 320V020 3SM -SN DRSN OVC010 M13/M16 A2985 RMK SC8 SLP113
Loading
Personal Weather Stations






























Interactive Weather Map New forecast layout! Learn more

10-Day Weather Forecast

Advertisements
Track Severe Weather on mobile